createdAt,value
2023-04-05T00:01:41.708Z,47.30
2023-04-05T00:05:08.822Z,47.33
2023-04-05T00:08:30.355Z,47.33
2023-04-05T00:11:58.513Z,47.38
2023-04-05T00:15:18.753Z,47.43
2023-04-05T00:18:43.556Z,47.36
2023-04-05T00:22:05.799Z,47.35
2023-04-05T00:25:22.821Z,47.29
2023-04-05T00:28:24.631Z,47.36
2023-04-05T00:31:30.785Z,47.37
2023-04-05T00:34:33.852Z,47.33
2023-04-05T00:37:36.334Z,47.21
2023-04-05T00:40:38.454Z,47.19
2023-04-05T00:43:54.902Z,47.09
2023-04-05T00:47:26.486Z,46.94
2023-04-05T00:50:41.535Z,46.83
2023-04-05T00:53:45.080Z,46.71
2023-04-05T00:57:11.169Z,46.60
2023-04-05T01:00:43.753Z,46.61
2023-04-05T01:03:56.190Z,46.48
2023-04-05T01:07:27.528Z,46.42
2023-04-05T01:10:36.524Z,46.33
2023-04-05T01:13:38.719Z,46.09
2023-04-05T01:16:53.286Z,46.21
2023-04-05T01:20:00.666Z,46.07
2023-04-05T01:23:25.175Z,45.97
2023-04-05T01:26:56.849Z,46.03
2023-04-05T01:30:15.465Z,46.08
2023-04-05T01:33:51.857Z,46.00
2023-04-05T01:37:00.825Z,46.07
2023-04-05T01:40:06.348Z,46.05
2023-04-05T01:43:46.942Z,46.09
2023-04-05T01:47:01.589Z,45.98
2023-04-05T01:50:03.961Z,46.13
2023-04-05T01:53:44.958Z,46.17
2023-04-05T01:56:58.930Z,46.12
2023-04-05T02:00:13.367Z,46.05
2023-04-05T02:03:17.970Z,45.98
2023-04-05T02:07:03.481Z,46.01
2023-04-05T02:10:13.620Z,45.97
2023-04-05T02:13:18.775Z,46.02
2023-04-05T02:16:33.532Z,45.93
2023-04-05T02:20:02.338Z,45.97
2023-04-05T02:23:30.132Z,45.96
2023-04-05T02:26:45.240Z,45.96
2023-04-05T02:29:57.338Z,46.00
2023-04-05T02:33:29.472Z,45.95
2023-04-05T02:36:41.936Z,45.85
2023-04-05T02:40:15.764Z,45.88
2023-04-05T02:43:30.966Z,45.83
2023-04-05T02:46:33.024Z,45.77
2023-04-05T02:49:38.078Z,45.75
2023-04-05T02:52:46.792Z,45.79
2023-04-05T02:56:37.925Z,45.79
2023-04-05T03:00:25.762Z,45.66
2023-04-05T03:03:40.826Z,45.77
2023-04-05T03:06:46.481Z,45.73
2023-04-05T03:09:50.724Z,45.76
2023-04-05T03:13:13.902Z,45.68
2023-04-05T03:16:38.196Z,45.72
2023-04-05T03:19:53.021Z,45.70
2023-04-05T03:23:18.241Z,45.66
2023-04-05T03:26:31.632Z,45.71
2023-04-05T03:29:55.367Z,45.69
2023-04-05T03:32:57.743Z,45.71
2023-04-05T03:36:42.711Z,45.64
2023-04-05T03:39:55.323Z,45.65
2023-04-05T03:43:20.459Z,45.56
2023-04-05T03:46:27.026Z,45.53
2023-04-05T03:49:48.591Z,45.56
2023-04-05T03:53:31.755Z,45.57
2023-04-05T03:56:37.876Z,45.52
2023-04-05T04:00:01.303Z,45.56
2023-04-05T04:03:17.195Z,45.42
2023-04-05T04:06:43.362Z,45.50
2023-04-05T04:09:45.591Z,45.52
2023-04-05T04:12:50.520Z,45.47
2023-04-05T04:15:53.272Z,45.49
2023-04-05T04:19:12.689Z,45.45
2023-04-05T04:22:52.111Z,45.52
2023-04-05T04:26:43.060Z,45.46
2023-04-05T04:30:04.220Z,45.47
2023-04-05T04:33:27.124Z,45.46
2023-04-05T04:36:54.207Z,45.41
2023-04-05T04:39:56.040Z,45.35
2023-04-05T04:43:38.662Z,45.31
2023-04-05T04:47:04.495Z,45.28
2023-04-05T04:50:21.504Z,45.25
2023-04-05T04:53:51.017Z,45.11
2023-04-05T04:56:53.007Z,45.19
2023-04-05T04:59:55.057Z,45.15
2023-04-05T05:02:59.899Z,45.24
2023-04-05T05:06:23.359Z,45.20
2023-04-05T05:09:54.820Z,45.17
2023-04-05T05:12:59.967Z,45.14
2023-04-05T05:16:04.469Z,45.19
2023-04-05T05:19:06.433Z,45.24
2023-04-05T05:22:27.131Z,45.40
2023-04-05T05:25:30.029Z,45.39
2023-04-05T05:28:54.282Z,45.45
2023-04-05T05:31:57.300Z,45.44
2023-04-05T05:35:01.911Z,45.48
2023-04-05T05:38:03.761Z,45.45
2023-04-05T05:41:06.095Z,45.41
2023-04-05T05:44:28.749Z,45.42
2023-04-05T05:47:30.910Z,45.61
2023-04-05T05:50:48.800Z,45.43
2023-04-05T05:53:53.014Z,45.58
2023-04-05T05:57:22.732Z,45.51
2023-04-05T06:00:33.503Z,45.42
2023-04-05T06:03:55.734Z,45.30
2023-04-05T06:07:01.831Z,45.19
2023-04-05T06:10:11.632Z,45.13
2023-04-05T06:13:13.613Z,45.14
2023-04-05T06:16:43.158Z,45.15
2023-04-05T06:19:58.304Z,45.09
2023-04-05T06:23:03.739Z,45.01
2023-04-05T06:26:05.494Z,45.01
2023-04-05T06:29:07.323Z,44.96
2023-04-05T06:32:09.262Z,44.91
2023-04-05T06:35:13.564Z,44.82
2023-04-05T06:38:28.621Z,44.70
2023-04-05T06:41:38.048Z,44.83
2023-04-05T06:44:40.134Z,44.90
2023-04-05T06:47:44.875Z,44.81
2023-04-05T06:50:47.133Z,44.68
2023-04-05T06:53:49.302Z,44.67
2023-04-05T06:56:57.431Z,44.55
2023-04-05T07:00:08.025Z,44.61
2023-04-05T07:03:10.002Z,44.50
2023-04-05T07:06:14.585Z,44.41
2023-04-05T07:09:20.746Z,44.30
2023-04-05T07:12:22.722Z,44.41
2023-04-05T07:16:02.004Z,44.34
2023-04-05T07:19:09.521Z,44.23
2023-04-05T07:22:11.419Z,44.34
2023-04-05T07:25:23.589Z,44.16
2023-04-05T07:28:44.747Z,44.16
2023-04-05T07:32:01.727Z,44.05
2023-04-05T07:35:13.048Z,43.94
2023-04-05T07:38:22.665Z,43.87
2023-04-05T07:41:31.719Z,43.79
2023-04-05T07:44:33.596Z,43.61
2023-04-05T07:48:05.939Z,43.56
2023-04-05T07:51:28.219Z,43.51
2023-04-05T07:54:33.472Z,43.58
2023-04-05T07:57:38.543Z,43.29
2023-04-05T08:00:43.336Z,43.21
2023-04-05T08:03:53.062Z,43.21
2023-04-05T08:07:07.855Z,43.14
2023-04-05T08:10:19.025Z,42.97
2023-04-05T08:13:58.813Z,42.80
2023-04-05T08:17:19.317Z,42.74
2023-04-05T08:20:41.733Z,42.50
2023-04-05T08:24:04.166Z,42.21
2023-04-05T08:27:36.675Z,42.12
2023-04-05T08:31:07.844Z,41.99
2023-04-05T08:34:12.755Z,41.86
2023-04-05T08:37:14.571Z,41.94
2023-04-05T08:40:34.094Z,41.87
2023-04-05T08:44:21.954Z,41.73
2023-04-05T08:47:54.355Z,41.57
2023-04-05T08:51:09.269Z,41.37
2023-04-05T08:54:14.953Z,41.19
2023-04-05T08:57:16.925Z,41.14
2023-04-05T09:00:32.372Z,41.21
2023-04-05T09:03:46.605Z,41.14
2023-04-05T09:07:09.981Z,41.11
2023-04-05T09:10:14.836Z,40.88
2023-04-05T09:13:36.896Z,40.92
2023-04-05T09:16:42.618Z,40.79
2023-04-05T09:19:50.206Z,40.55
2023-04-05T09:22:52.218Z,40.40
2023-04-05T09:25:54.389Z,40.28
2023-04-05T09:28:56.355Z,40.18
2023-04-05T09:32:10.234Z,40.26
2023-04-05T09:35:32.811Z,39.95
2023-04-05T09:38:53.713Z,39.36
2023-04-05T09:42:16.175Z,39.58
2023-04-05T09:45:45.523Z,39.67
2023-04-05T09:49:24.670Z,39.57
2023-04-05T09:52:39.474Z,39.35
2023-04-05T09:55:43.037Z,39.28
2023-04-05T09:58:51.729Z,39.28
2023-04-05T10:01:53.784Z,39.21
2023-04-05T10:05:16.323Z,39.16
2023-04-05T10:08:20.864Z,39.12
2023-04-05T10:11:46.116Z,39.05
2023-04-05T10:15:00.632Z,39.13
2023-04-05T10:18:11.290Z,39.00
2023-04-05T10:21:15.869Z,38.66
2023-04-05T10:25:07.192Z,38.40
2023-04-05T10:28:22.541Z,38.66
2023-04-05T10:31:58.198Z,38.68
2023-04-05T10:35:16.002Z,38.51
2023-04-05T10:38:28.460Z,38.28
2023-04-05T10:41:40.084Z,38.34
2023-04-05T10:44:43.982Z,38.03
2023-04-05T10:48:33.616Z,38.03
2023-04-05T10:51:45.367Z,37.75
2023-04-05T10:54:50.691Z,37.65
2023-04-05T10:57:54.409Z,37.55
2023-04-05T11:01:04.644Z,37.23
2023-04-05T11:04:15.233Z,37.25
2023-04-05T11:07:27.225Z,37.10
2023-04-05T11:10:32.595Z,37.15
2023-04-05T11:13:54.905Z,36.94
2023-04-05T11:17:00.191Z,37.00
2023-04-05T11:20:05.900Z,37.23
2023-04-05T11:23:07.684Z,37.22
2023-04-05T11:26:09.562Z,36.85
2023-04-05T11:29:21.126Z,36.49
2023-04-05T11:32:23.819Z,36.52
2023-04-05T11:35:25.843Z,36.59
2023-04-05T11:38:33.154Z,36.37
2023-04-05T11:41:35.018Z,36.25
2023-04-05T11:44:43.999Z,35.91
2023-04-05T11:47:48.636Z,35.86
2023-04-05T11:50:56.646Z,35.84
2023-04-05T11:54:19.054Z,35.84
2023-04-05T11:57:29.071Z,35.90
2023-04-05T12:00:33.813Z,35.95
2023-04-05T12:03:37.569Z,36.01
2023-04-05T12:06:39.473Z,36.04
2023-04-05T12:10:21.263Z,36.03
2023-04-05T12:13:33.347Z,35.83
2023-04-05T12:16:35.120Z,35.49
2023-04-05T12:19:40.562Z,35.25
2023-04-05T12:22:44.145Z,35.27
2023-04-05T12:25:47.844Z,35.19
2023-04-05T12:28:59.177Z,35.15
2023-04-05T12:32:04.713Z,34.94
2023-04-05T12:35:10.992Z,34.86
2023-04-05T12:38:17.875Z,34.98
2023-04-05T12:41:27.829Z,34.81
2023-04-05T12:44:32.822Z,34.62
2023-04-05T12:47:36.098Z,34.54
2023-04-05T12:50:43.157Z,34.35
2023-04-05T12:53:47.291Z,34.26
2023-04-05T12:56:54.892Z,34.16
2023-04-05T12:59:56.690Z,34.09
2023-04-05T13:02:59.522Z,33.92
2023-04-05T13:06:01.542Z,33.83
2023-04-05T13:09:03.974Z,33.71
2023-04-05T13:12:06.549Z,33.45
2023-04-05T13:15:11.797Z,33.56
2023-04-05T13:18:15.064Z,33.59
2023-04-05T13:21:16.875Z,33.47
2023-04-05T13:24:18.517Z,33.32
2023-04-05T13:27:21.926Z,33.35
2023-04-05T13:30:35.263Z,33.25
2023-04-05T13:33:37.127Z,33.28
2023-04-05T13:36:38.893Z,33.16
2023-04-05T13:39:40.797Z,32.95
2023-04-05T13:42:44.935Z,32.72
2023-04-05T13:45:46.534Z,32.39
2023-04-05T13:48:48.294Z,32.14
2023-04-05T13:51:50.226Z,32.06
2023-04-05T13:55:02.910Z,32.07
2023-04-05T13:58:06.319Z,31.98
2023-04-05T14:01:08.044Z,32.14
2023-04-05T14:04:10.323Z,31.81
2023-04-05T14:07:12.045Z,31.74
2023-04-05T14:10:13.705Z,31.82
2023-04-05T14:13:18.787Z,31.81
2023-04-05T14:16:20.620Z,31.61
2023-04-05T14:19:24.879Z,31.41
2023-04-05T14:22:26.747Z,31.47
2023-04-05T14:25:36.590Z,31.40
2023-04-05T14:28:38.869Z,31.18
2023-04-05T14:31:44.410Z,31.18
2023-04-05T14:34:46.154Z,31.09
2023-04-05T14:37:50.778Z,31.00
2023-04-05T14:40:52.842Z,30.97
2023-04-05T14:43:55.125Z,30.97
2023-04-05T14:46:57.093Z,30.74
2023-04-05T14:50:12.295Z,30.84
2023-04-05T14:53:30.996Z,30.85
2023-04-05T14:56:33.593Z,30.79
2023-04-05T14:59:35.848Z,30.68
2023-04-05T15:02:38.269Z,30.48
2023-04-05T15:05:42.831Z,30.58
2023-04-05T15:08:44.564Z,30.53
2023-04-05T15:11:46.530Z,30.38
2023-04-05T15:14:53.214Z,30.45
2023-04-05T15:18:03.011Z,30.29
2023-04-05T15:21:05.944Z,30.26
2023-04-05T15:24:08.547Z,30.25
2023-04-05T15:27:11.535Z,30.13
2023-04-05T15:30:14.110Z,30.05
2023-04-05T15:33:17.118Z,30.02
2023-04-05T15:36:19.011Z,29.96
2023-04-05T15:39:21.074Z,30.04
2023-04-05T15:42:23.186Z,29.88
2023-04-05T15:45:24.875Z,29.68
2023-04-05T15:48:32.410Z,29.60
2023-04-05T15:51:35.531Z,29.47
2023-04-05T15:54:37.571Z,29.48
2023-04-05T15:58:03.815Z,29.42
2023-04-05T16:01:06.039Z,29.33
2023-04-05T16:04:09.162Z,29.05
2023-04-05T16:07:11.008Z,28.47
2023-04-05T16:10:12.935Z,28.11
2023-04-05T16:13:14.889Z,28.13
2023-04-05T16:16:29.912Z,28.48
2023-04-05T16:19:37.036Z,28.68
2023-04-05T16:22:38.842Z,28.36
2023-04-05T16:25:40.568Z,27.92
2023-04-05T16:28:42.688Z,27.55
2023-04-05T16:31:47.561Z,27.59
2023-04-05T16:34:49.692Z,27.39
2023-04-05T16:37:51.386Z,27.39
2023-04-05T16:40:53.224Z,27.60
2023-04-05T16:43:58.124Z,27.64
2023-04-05T16:46:59.872Z,27.78
2023-04-05T16:50:05.091Z,27.53
2023-04-05T16:53:15.454Z,27.52
2023-04-05T16:56:17.422Z,27.40
2023-04-05T16:59:19.298Z,27.37
2023-04-05T17:02:21.464Z,27.34
2023-04-05T17:05:23.466Z,27.28
2023-04-05T17:08:31.408Z,27.31
2023-04-05T17:11:33.417Z,27.32
2023-04-05T17:14:42.738Z,27.27
2023-04-05T17:17:44.667Z,27.29
2023-04-05T17:20:46.862Z,27.35
2023-04-05T17:23:49.033Z,27.35
2023-04-05T17:26:50.736Z,27.38
2023-04-05T17:30:01.187Z,27.52
2023-04-05T17:33:11.909Z,27.54
2023-04-05T17:36:13.733Z,27.62
2023-04-05T17:39:16.185Z,27.67
2023-04-05T17:42:18.732Z,27.79
2023-04-05T17:45:59.719Z,27.86
2023-04-05T17:49:09.138Z,27.88
2023-04-05T17:52:13.263Z,28.11
2023-04-05T17:55:15.044Z,28.16
2023-04-05T17:58:16.853Z,28.42
2023-04-05T18:01:18.890Z,28.52
2023-04-05T18:04:27.230Z,28.71
2023-04-05T18:07:28.958Z,28.90
2023-04-05T18:10:36.352Z,29.05
2023-04-05T18:13:38.199Z,29.24
2023-04-05T18:16:40.761Z,29.41
2023-04-05T18:19:42.583Z,29.47
2023-04-05T18:22:47.286Z,29.58
2023-04-05T18:25:49.607Z,29.79
2023-04-05T18:28:55.161Z,29.96
2023-04-05T18:32:08.701Z,30.12
2023-04-05T18:35:13.192Z,30.27
2023-04-05T18:38:17.461Z,30.50
2023-04-05T18:41:19.314Z,30.62
2023-04-05T18:44:21.441Z,30.85
2023-04-05T18:47:23.492Z,30.79
2023-04-05T18:50:47.904Z,30.86
2023-04-05T18:53:53.207Z,30.81
2023-04-05T18:56:55.155Z,31.03
2023-04-05T18:59:57.329Z,31.22
2023-04-05T19:03:04.999Z,31.43
2023-04-05T19:06:07.128Z,31.94
2023-04-05T19:09:20.277Z,32.32
2023-04-05T19:12:24.276Z,32.91
2023-04-05T19:15:26.279Z,32.97
2023-04-05T19:18:29.812Z,33.32
2023-04-05T19:21:32.375Z,33.64
2023-04-05T19:24:39.628Z,33.94
2023-04-05T19:27:47.102Z,34.19
2023-04-05T19:30:52.165Z,34.48
2023-04-05T19:33:54.730Z,34.66
2023-04-05T19:37:00.909Z,34.99
2023-04-05T19:40:07.223Z,35.18
2023-04-05T19:43:12.628Z,35.32
2023-04-05T19:46:19.686Z,35.63
2023-04-05T19:49:29.701Z,35.88
2023-04-05T19:52:51.676Z,35.98
2023-04-05T19:55:56.783Z,36.26
2023-04-05T19:59:38.028Z,36.37
2023-04-05T20:03:07.587Z,36.53
2023-04-05T20:06:34.946Z,36.77
2023-04-05T20:10:24.972Z,36.95
2023-04-05T20:13:27.287Z,37.15
2023-04-05T20:16:44.526Z,37.43
2023-04-05T20:20:08.142Z,37.67
2023-04-05T20:23:10.491Z,37.89
2023-04-05T20:26:27.151Z,38.12
2023-04-05T20:29:49.261Z,38.28
2023-04-05T20:32:54.298Z,38.54
2023-04-05T20:36:10.993Z,38.62
2023-04-05T20:39:27.161Z,38.76
2023-04-05T20:42:52.186Z,38.90
2023-04-05T20:45:55.013Z,38.94
2023-04-05T20:48:58.188Z,39.13
2023-04-05T20:52:11.079Z,39.24
2023-04-05T20:55:15.731Z,39.47
2023-04-05T20:58:17.702Z,39.81
2023-04-05T21:01:32.696Z,39.72
2023-04-05T21:04:37.294Z,39.83
2023-04-05T21:08:16.389Z,39.77
2023-04-05T21:11:27.737Z,39.89
2023-04-05T21:14:29.589Z,40.05
2023-04-05T21:17:31.878Z,40.21
2023-04-05T21:21:03.308Z,40.33
2023-04-05T21:24:08.438Z,40.54
2023-04-05T21:27:30.815Z,40.58
2023-04-05T21:30:33.100Z,40.55
2023-04-05T21:33:46.332Z,40.70
2023-04-05T21:36:51.156Z,40.86
2023-04-05T21:40:05.672Z,41.02
2023-04-05T21:43:16.684Z,41.40
2023-04-05T21:46:21.533Z,41.69
2023-04-05T21:49:53.827Z,42.25
2023-04-05T21:52:55.750Z,42.12
2023-04-05T21:55:57.999Z,42.27
2023-04-05T21:59:26.043Z,42.41
2023-04-05T22:02:32.668Z,42.56
2023-04-05T22:05:38.862Z,42.75
2023-04-05T22:08:47.029Z,42.84
2023-04-05T22:11:58.893Z,43.12
2023-04-05T22:15:21.308Z,43.03
2023-04-05T22:18:33.188Z,42.98
2023-04-05T22:21:57.999Z,43.12
2023-04-05T22:25:09.866Z,43.25
2023-04-05T22:28:41.023Z,43.41
2023-04-05T22:31:43.134Z,43.61
2023-04-05T22:35:25.695Z,43.94
2023-04-05T22:39:18.300Z,43.88
2023-04-05T22:42:25.651Z,43.99
2023-04-05T22:45:55.634Z,44.00
2023-04-05T22:49:05.772Z,44.04
2023-04-05T22:52:21.220Z,44.21
2023-04-05T22:56:08.270Z,44.41
2023-04-05T23:00:20.348Z,44.55
2023-04-05T23:03:25.556Z,44.46
2023-04-05T23:07:30.874Z,44.40
2023-04-05T23:11:10.687Z,44.63
2023-04-05T23:14:24.661Z,45.01
2023-04-05T23:17:50.370Z,45.23
2023-04-05T23:21:21.623Z,45.57
2023-04-05T23:24:36.501Z,45.83
2023-04-05T23:27:49.410Z,45.94
2023-04-05T23:31:09.900Z,45.95
2023-04-05T23:34:14.332Z,45.75
2023-04-05T23:37:31.868Z,45.76
2023-04-05T23:40:44.086Z,45.66
2023-04-05T23:44:19.490Z,45.92
2023-04-05T23:47:21.883Z,46.07
2023-04-05T23:50:43.985Z,46.20
2023-04-05T23:53:52.720Z,46.15
2023-04-05T23:56:55.103Z,46.19
